createdAt,value
2018-12-30T00:01:25.079Z,169.57
2018-12-30T00:03:53.246Z,183.50
2018-12-30T00:06:21.423Z,183.57
2018-12-30T00:08:50.392Z,173.93
2018-12-30T00:11:18.654Z,176.37
2018-12-30T00:13:46.959Z,198.73
2018-12-30T00:16:15.223Z,201.83
2018-12-30T00:18:43.807Z,199.30
2018-12-30T00:21:12.298Z,192.03
2018-12-30T00:23:40.562Z,200.70
2018-12-30T00:26:09.185Z,202.53
2018-12-30T00:28:37.371Z,196.00
2018-12-30T00:31:05.555Z,212.47
2018-12-30T00:33:33.986Z,209.67
2018-12-30T00:36:02.249Z,214.00
2018-12-30T00:38:32.728Z,215.63
2018-12-30T00:41:02.150Z,208.77
2018-12-30T00:43:30.330Z,209.60
2018-12-30T00:46:02.600Z,199.70
2018-12-30T00:48:31.370Z,195.67
2018-12-30T00:50:59.904Z,203.73
2018-12-30T00:53:28.121Z,203.43
2018-12-30T00:55:56.354Z,218.43
2018-12-30T00:58:25.907Z,202.97
2018-12-30T01:00:54.269Z,200.80
2018-12-30T01:03:22.549Z,200.80
2018-12-30T01:05:51.193Z,195.80
2018-12-30T01:08:19.700Z,186.83
2018-12-30T01:10:49.729Z,193.60
2018-12-30T01:13:18.029Z,202.10
2018-12-30T01:15:46.221Z,193.57
2018-12-30T01:18:15.271Z,194.20
2018-12-30T01:20:43.456Z,190.97
2018-12-30T01:23:11.537Z,200.20
2018-12-30T01:25:40.702Z,190.43
2018-12-30T01:28:09.085Z,192.83
2018-12-30T01:30:38.213Z,178.83
2018-12-30T01:33:06.348Z,183.80
2018-12-30T01:35:34.597Z,186.13
2018-12-30T01:38:02.769Z,181.37
2018-12-30T01:40:30.954Z,183.03
2018-12-30T01:42:59.596Z,88.97
2018-12-30T01:45:27.699Z,70.60
2018-12-30T01:47:57.148Z,64.83
2018-12-30T01:50:25.322Z,94.57
2018-12-30T01:53:01.708Z,60.07
2018-12-30T01:55:29.861Z,105.60
2018-12-30T01:57:57.888Z,70.97
2018-12-30T02:00:26.113Z,87.57
2018-12-30T02:02:54.169Z,112.50
2018-12-30T02:05:23.486Z,151.10
2018-12-30T02:07:52.273Z,158.97
2018-12-30T02:10:20.525Z,168.13
2018-12-30T02:12:48.743Z,176.50
2018-12-30T02:15:16.831Z,176.80
2018-12-30T02:17:45.272Z,159.60
2018-12-30T02:20:13.755Z,156.30
2018-12-30T02:22:42.340Z,167.00
2018-12-30T02:25:11.388Z,166.53
2018-12-30T02:27:39.694Z,176.43
2018-12-30T02:30:08.073Z,173.83
2018-12-30T02:32:36.237Z,165.93
2018-12-30T02:35:04.547Z,155.00
2018-12-30T02:37:32.766Z,155.00
2018-12-30T02:40:00.827Z,143.63
2018-12-30T02:42:29.316Z,134.40
2018-12-30T02:44:57.480Z,143.63
2018-12-30T02:47:25.712Z,148.07
2018-12-30T02:49:53.972Z,150.33
2018-12-30T02:52:22.495Z,141.50
2018-12-30T02:54:50.630Z,157.10
2018-12-30T02:57:18.687Z,160.07
2018-12-30T02:59:47.267Z,154.27
2018-12-30T03:02:15.306Z,152.77
2018-12-30T03:04:44.367Z,160.33
2018-12-30T03:07:12.730Z,165.53
2018-12-30T03:09:41.770Z,168.17
2018-12-30T03:12:11.068Z,165.27
2018-12-30T03:14:39.250Z,163.30
2018-12-30T03:17:07.293Z,164.50
2018-12-30T03:19:35.419Z,153.30
2018-12-30T03:22:03.531Z,153.00
2018-12-30T03:24:31.623Z,163.93
2018-12-30T03:26:59.764Z,165.60
2018-12-30T03:29:27.825Z,160.90
2018-12-30T03:31:56.040Z,166.53
2018-12-30T03:34:24.635Z,154.03
2018-12-30T03:36:52.802Z,156.40
2018-12-30T03:39:20.945Z,161.50
2018-12-30T03:41:49.091Z,158.93
2018-12-30T03:44:17.230Z,167.40
2018-12-30T03:46:45.268Z,168.00
2018-12-30T03:49:13.452Z,169.07
2018-12-30T03:51:41.545Z,166.97
2018-12-30T03:54:09.756Z,164.70
2018-12-30T03:56:37.888Z,166.50
2018-12-30T03:59:06.014Z,162.53
2018-12-30T04:01:34.188Z,166.87
2018-12-30T04:04:02.289Z,172.07
2018-12-30T04:06:30.619Z,169.33
2018-12-30T04:08:58.785Z,165.30
2018-12-30T04:11:27.371Z,173.90
2018-12-30T04:13:55.529Z,164.20
2018-12-30T04:16:23.640Z,167.27
2018-12-30T04:18:51.788Z,172.47
2018-12-30T04:21:19.924Z,160.50
2018-12-30T04:23:48.024Z,161.27
2018-12-30T04:26:16.170Z,166.00
2018-12-30T04:28:44.247Z,166.97
2018-12-30T04:31:12.412Z,167.93
2018-12-30T04:33:40.536Z,162.23
2018-12-30T04:36:08.654Z,159.87
2018-12-30T04:38:37.708Z,144.70
2018-12-30T04:41:05.929Z,140.90
2018-12-30T04:43:34.139Z,136.30
2018-12-30T04:46:02.945Z,134.27
2018-12-30T04:48:31.067Z,133.07
2018-12-30T04:50:59.228Z,137.13
2018-12-30T04:53:27.370Z,129.53
2018-12-30T04:55:59.727Z,138.53
2018-12-30T04:58:27.849Z,131.90
2018-12-30T05:00:56.218Z,135.07
2018-12-30T05:03:24.982Z,131.03
2018-12-30T05:05:53.030Z,138.33
2018-12-30T05:08:21.172Z,132.80
2018-12-30T05:10:49.405Z,130.40
2018-12-30T05:13:17.568Z,133.70
2018-12-30T05:15:45.738Z,132.60
2018-12-30T05:18:13.897Z,138.60
2018-12-30T05:20:41.913Z,139.03
2018-12-30T05:23:10.023Z,148.40
2018-12-30T05:25:38.157Z,148.53
2018-12-30T05:28:06.329Z,142.70
2018-12-30T05:30:34.970Z,138.57
2018-12-30T05:33:03.152Z,134.07
2018-12-30T05:35:31.289Z,129.27
2018-12-30T05:37:59.417Z,132.20
2018-12-30T05:40:27.511Z,143.60
2018-12-30T05:42:55.596Z,144.40
2018-12-30T05:45:23.848Z,163.17
2018-12-30T05:47:51.965Z,160.67
2018-12-30T05:50:20.104Z,158.20
2018-12-30T05:52:48.241Z,165.67
2018-12-30T05:55:16.355Z,163.03
2018-12-30T05:57:44.468Z,142.43
2018-12-30T06:00:12.603Z,139.17
2018-12-30T06:02:40.631Z,143.10
2018-12-30T06:05:08.785Z,145.07
2018-12-30T06:07:36.837Z,142.47
2018-12-30T06:10:05.086Z,137.53
2018-12-30T06:12:33.623Z,144.90
2018-12-30T06:15:01.731Z,134.27
2018-12-30T06:17:29.900Z,145.80
2018-12-30T06:19:58.002Z,154.43
2018-12-30T06:22:26.240Z,159.80
2018-12-30T06:24:55.123Z,146.07
2018-12-30T06:27:23.229Z,143.67
2018-12-30T06:29:51.687Z,175.13
2018-12-30T06:32:19.814Z,174.40
2018-12-30T06:34:48.003Z,164.80
2018-12-30T06:37:16.185Z,145.57
2018-12-30T06:39:44.363Z,155.97
2018-12-30T06:42:12.615Z,165.23
2018-12-30T06:44:40.877Z,159.27
2018-12-30T07:02:29.139Z,147.73
2018-12-30T07:04:57.169Z,150.90
2018-12-30T07:07:25.479Z,154.13
2018-12-30T07:09:53.490Z,170.43
2018-12-30T07:12:21.438Z,174.03
2018-12-30T07:14:49.441Z,160.47
2018-12-30T07:17:17.513Z,163.63
2018-12-30T07:19:45.488Z,171.77
2018-12-30T07:22:13.546Z,160.97
2018-12-30T07:24:41.573Z,169.77
2018-12-30T07:27:10.014Z,160.40
2018-12-30T07:29:37.901Z,159.40
2018-12-30T07:32:05.885Z,161.67
2018-12-30T07:34:33.829Z,164.47
2018-12-30T07:37:01.876Z,163.50
2018-12-30T07:39:29.932Z,171.33
2018-12-30T07:41:57.963Z,179.97
2018-12-30T07:44:26.006Z,170.83
2018-12-30T07:46:54.013Z,164.63
2018-12-30T07:49:21.913Z,163.83
2018-12-30T07:51:49.874Z,166.70
2018-12-30T07:54:17.856Z,168.40
2018-12-30T07:56:45.730Z,174.93
2018-12-30T07:59:13.777Z,165.87
2018-12-30T08:01:41.665Z,166.33
2018-12-30T08:04:09.658Z,164.97
2018-12-30T08:06:37.625Z,166.87
2018-12-30T08:09:06.240Z,161.73
2018-12-30T08:11:34.266Z,162.40
2018-12-30T08:14:02.273Z,155.27
2018-12-30T08:16:31.167Z,168.87
2018-12-30T08:18:59.140Z,165.60
2018-12-30T08:21:27.077Z,167.20
2018-12-30T08:23:55.097Z,166.33
2018-12-30T08:26:23.104Z,167.93
2018-12-30T08:28:54.140Z,173.40
2018-12-30T08:31:22.128Z,167.67
2018-12-30T08:33:50.009Z,161.30
2018-12-30T08:36:17.990Z,157.50
2018-12-30T08:38:45.873Z,174.33
2018-12-30T08:41:13.885Z,169.83
2018-12-30T08:43:41.758Z,170.13
2018-12-30T08:46:10.138Z,182.87
2018-12-30T08:48:38.033Z,176.80
2018-12-30T08:51:06.709Z,167.33
2018-12-30T08:53:34.782Z,188.60
2018-12-30T08:56:03.393Z,179.83
2018-12-30T09:00:01.882Z,168.80
2018-12-30T09:02:30.403Z,161.73
2018-12-30T09:04:58.422Z,168.47
2018-12-30T09:07:26.323Z,158.53
2018-12-30T09:09:54.350Z,159.83
2018-12-30T09:12:22.293Z,152.53
2018-12-30T09:14:50.278Z,146.10
2018-12-30T09:17:18.431Z,145.60
2018-12-30T09:19:46.477Z,144.93
2018-12-30T09:22:14.411Z,138.50
2018-12-30T09:24:42.979Z,139.00
2018-12-30T09:27:10.898Z,135.30
2018-12-30T09:29:38.957Z,131.57
2018-12-30T09:32:06.870Z,131.83
2018-12-30T09:34:35.106Z,137.27
2018-12-30T09:37:03.106Z,138.47
2018-12-30T09:39:31.189Z,143.63
2018-12-30T09:42:01.013Z,136.40
2018-12-30T09:44:29.027Z,133.00
2018-12-30T09:46:57.060Z,130.10
2018-12-30T09:49:25.053Z,127.67
2018-12-30T09:51:53.106Z,115.27
2018-12-30T09:54:21.211Z,114.13
2018-12-30T09:56:49.147Z,117.40
2018-12-30T09:59:17.157Z,118.70
2018-12-30T10:01:45.125Z,126.00
2018-12-30T10:04:13.141Z,128.63
2018-12-30T10:06:41.205Z,138.20
2018-12-30T10:09:09.116Z,144.23
2018-12-30T10:11:37.848Z,143.77
2018-12-30T10:14:05.866Z,146.27
2018-12-30T10:16:33.820Z,139.30
2018-12-30T10:19:01.766Z,130.67
2018-12-30T10:21:29.714Z,140.33
2018-12-30T10:23:57.743Z,129.47
2018-12-30T10:26:25.636Z,124.60
2018-12-30T10:28:53.727Z,124.87
2018-12-30T10:31:21.637Z,124.30
2018-12-30T10:33:49.689Z,113.30
2018-12-30T10:36:17.687Z,114.93
2018-12-30T10:38:46.673Z,122.87
2018-12-30T10:41:14.715Z,119.83
2018-12-30T10:43:43.651Z,125.57
2018-12-30T10:46:11.587Z,126.67
2018-12-30T10:48:39.893Z,139.57
2018-12-30T10:51:07.809Z,124.40
2018-12-30T10:53:37.224Z,137.90
2018-12-30T10:56:05.270Z,134.23
2018-12-30T10:58:33.349Z,138.57
2018-12-30T11:01:01.420Z,147.07
2018-12-30T11:03:29.453Z,159.63
2018-12-30T11:05:57.457Z,145.50
2018-12-30T11:08:25.349Z,145.20
2018-12-30T11:10:53.473Z,139.43
2018-12-30T11:13:21.438Z,144.45
2018-12-30T11:15:49.381Z,136.00
2018-12-30T11:18:17.430Z,133.30
2018-12-30T11:20:45.464Z,144.67
2018-12-30T11:23:14.233Z,134.37
2018-12-30T11:25:42.265Z,123.70
2018-12-30T11:28:10.152Z,127.67
2018-12-30T11:30:38.168Z,131.13
2018-12-30T11:33:06.081Z,128.37
2018-12-30T11:35:34.114Z,129.30
2018-12-30T11:38:01.976Z,135.23
2018-12-30T11:40:30.065Z,125.43
2018-12-30T11:42:58.013Z,123.97
2018-12-30T11:45:26.050Z,134.90
2018-12-30T11:47:54.124Z,127.83
2018-12-30T11:50:22.069Z,85.63
2018-12-30T11:52:50.024Z,85.00
2018-12-30T11:55:18.087Z,95.57
2018-12-30T11:57:46.011Z,74.47
2018-12-30T12:00:13.995Z,68.37
2018-12-30T12:02:41.965Z,79.47
2018-12-30T12:06:54.664Z,77.57
2018-12-30T12:09:22.653Z,69.77
2018-12-30T12:11:50.538Z,68.10
2018-12-30T12:14:18.521Z,69.37
2018-12-30T12:16:47.355Z,70.37
2018-12-30T12:19:15.261Z,81.57
2018-12-30T12:21:43.167Z,75.60
2018-12-30T12:24:11.581Z,81.80
2018-12-30T12:26:39.509Z,81.73
2018-12-30T12:29:07.413Z,85.93
2018-12-30T12:31:35.398Z,88.23
2018-12-30T12:34:03.271Z,86.63
2018-12-30T12:36:31.489Z,79.53
2018-12-30T12:38:59.440Z,77.77
2018-12-30T12:41:27.537Z,75.53
2018-12-30T12:43:55.484Z,69.10
2018-12-30T12:46:23.435Z,80.07
2018-12-30T12:48:51.386Z,77.00
2018-12-30T12:51:19.555Z,75.17
2018-12-30T12:53:47.504Z,64.70
2018-12-30T12:56:15.432Z,60.80
2018-12-30T12:58:43.406Z,68.43
2018-12-30T13:01:12.068Z,73.80
2018-12-30T13:03:40.049Z,78.27
2018-12-30T13:06:08.713Z,79.77
2018-12-30T13:08:36.824Z,82.40
2018-12-30T13:11:04.916Z,80.27
2018-12-30T13:13:32.873Z,80.70
2018-12-30T13:16:03.478Z,78.23
2018-12-30T13:18:30.797Z,81.60
2018-12-30T13:20:58.701Z,92.97
2018-12-30T13:23:26.696Z,102.13
2018-12-30T13:25:54.687Z,85.60
2018-12-30T13:28:23.612Z,83.63
2018-12-30T13:30:51.983Z,79.00
2018-12-30T13:33:19.916Z,85.93
2018-12-30T13:35:47.965Z,91.07
2018-12-30T13:38:15.948Z,80.70
2018-12-30T13:40:44.025Z,79.40
2018-12-30T13:43:12.080Z,75.27
2018-12-30T13:45:40.031Z,73.07
2018-12-30T13:48:08.014Z,75.17
2018-12-30T13:50:35.957Z,76.33
2018-12-30T13:53:03.985Z,79.80
2018-12-30T13:55:31.901Z,86.13
2018-12-30T13:57:59.916Z,83.63
2018-12-30T14:00:27.876Z,73.40
2018-12-30T14:02:55.910Z,74.20
2018-12-30T14:05:23.833Z,77.13
2018-12-30T14:07:51.938Z,72.83
2018-12-30T14:10:19.965Z,70.67
2018-12-30T14:12:48.034Z,78.67
2018-12-30T14:15:16.115Z,77.60
2018-12-30T14:17:44.073Z,76.53
2018-12-30T14:20:12.137Z,78.00
2018-12-30T14:22:40.177Z,84.13
2018-12-30T14:25:08.102Z,80.33
2018-12-30T14:27:36.110Z,72.80
2018-12-30T14:30:05.233Z,69.57
2018-12-30T14:32:33.389Z,72.73
2018-12-30T14:35:55.870Z,64.47
2018-12-30T14:38:24.404Z,52.83
2018-12-30T14:40:52.434Z,50.47
2018-12-30T14:43:20.524Z,51.60
2018-12-30T14:45:48.723Z,54.13
2018-12-30T14:48:16.693Z,47.83
2018-12-30T14:50:44.705Z,48.03
2018-12-30T14:53:19.122Z,46.43
2018-12-30T14:55:42.404Z,49.53
2018-12-30T14:58:10.542Z,45.17
2018-12-30T15:00:38.589Z,47.57
2018-12-30T15:03:06.616Z,45.13
2018-12-30T15:05:34.567Z,49.17
2018-12-30T15:08:02.721Z,46.03
2018-12-30T15:10:30.784Z,47.00
2018-12-30T15:12:58.761Z,48.37
2018-12-30T15:15:26.949Z,49.63
2018-12-30T15:17:55.153Z,46.37
2018-12-30T15:20:23.129Z,48.63
2018-12-30T15:22:51.917Z,50.00
2018-12-30T15:25:19.961Z,49.17
2018-12-30T15:27:47.847Z,49.30
2018-12-30T15:30:15.872Z,50.70
2018-12-30T15:32:43.817Z,48.87
2018-12-30T15:35:12.013Z,63.60
2018-12-30T15:37:39.954Z,55.67
2018-12-30T15:40:08.037Z,55.70
2018-12-30T15:42:36.011Z,52.03
2018-12-30T15:45:04.413Z,51.43
2018-12-30T15:47:32.514Z,50.63
2018-12-30T15:50:00.547Z,51.87
2018-12-30T15:52:28.832Z,53.17
2018-12-30T15:54:57.265Z,54.87
2018-12-30T15:57:25.205Z,58.33
2018-12-30T15:59:53.209Z,49.80
2018-12-30T16:02:21.101Z,50.47
2018-12-30T16:04:49.081Z,41.17
2018-12-30T16:07:16.985Z,39.27
2018-12-30T16:09:45.010Z,33.47
2018-12-30T16:12:12.959Z,28.50
2018-12-30T16:14:41.017Z,31.30
2018-12-30T16:17:08.965Z,32.90
2018-12-30T16:19:37.977Z,31.33
2018-12-30T16:22:05.924Z,31.87
2018-12-30T16:24:33.966Z,30.30
2018-12-30T16:27:01.986Z,26.27
2018-12-30T16:29:29.970Z,29.60
2018-12-30T16:31:57.925Z,26.70
2018-12-30T16:34:25.938Z,26.03
2018-12-30T16:36:54.105Z,21.40
2018-12-30T16:39:22.218Z,29.43
2018-12-30T16:41:50.488Z,29.03
2018-12-30T16:44:18.461Z,27.17
2018-12-30T16:46:54.885Z,20.27
2018-12-30T16:49:24.346Z,27.23
2018-12-30T16:51:52.708Z,29.03
2018-12-30T16:54:20.733Z,30.93
2018-12-30T16:56:48.766Z,27.13
2018-12-30T16:59:16.718Z,18.17
2018-12-30T17:01:44.759Z,23.10
2018-12-30T17:04:12.648Z,26.57
2018-12-30T17:06:40.694Z,21.77
2018-12-30T17:09:08.805Z,23.97
2018-12-30T17:11:36.857Z,22.03
2018-12-30T17:14:04.778Z,25.60
2018-12-30T17:16:32.747Z,19.83
2018-12-30T17:19:00.722Z,21.63
2018-12-30T17:21:28.810Z,20.83
2018-12-30T17:23:56.813Z,21.57
2018-12-30T17:26:24.685Z,24.00
2018-12-30T17:28:52.957Z,19.03
2018-12-30T17:31:20.948Z,18.57
2018-12-30T17:33:48.914Z,17.83
2018-12-30T17:36:16.983Z,18.07
2018-12-30T17:38:44.930Z,16.13
2018-12-30T17:41:13.041Z,13.00
2018-12-30T17:43:41.064Z,15.43
2018-12-30T17:46:09.021Z,12.07
2018-12-30T17:48:37.076Z,14.60
2018-12-30T17:51:04.973Z,12.73
2018-12-30T17:53:33.016Z,15.23
2018-12-30T17:56:01.005Z,12.43
2018-12-30T17:58:29.067Z,11.90
2018-12-30T18:00:57.053Z,11.57
2018-12-30T18:03:25.081Z,11.17
2018-12-30T18:05:53.061Z,12.87
2018-12-30T18:08:22.216Z,10.60
2018-12-30T18:10:50.185Z,10.10
2018-12-30T18:13:18.223Z,9.70
2018-12-30T18:15:46.241Z,11.67
2018-12-30T18:18:14.257Z,11.17
2018-12-30T18:20:42.228Z,5.37
2018-12-30T18:23:10.232Z,10.17
2018-12-30T18:25:38.188Z,9.87
2018-12-30T18:28:06.152Z,12.87
2018-12-30T18:30:34.183Z,9.10
2018-12-30T18:33:02.121Z,10.40
2018-12-30T18:35:30.154Z,13.77
2018-12-30T18:37:58.093Z,9.77
2018-12-30T18:40:26.051Z,9.53
2018-12-30T18:42:54.057Z,10.80
2018-12-30T18:45:22.045Z,10.40
2018-12-30T18:47:50.009Z,9.93
2018-12-30T18:50:18.037Z,9.60
2018-12-30T18:52:46.047Z,9.87
2018-12-30T18:55:14.047Z,11.73
2018-12-30T18:57:42.480Z,9.67
2018-12-30T19:00:10.405Z,8.90
2018-12-30T19:02:38.377Z,9.17
2018-12-30T19:05:06.801Z,8.77
2018-12-30T19:07:34.941Z,9.13
2018-12-30T19:10:02.934Z,8.63
2018-12-30T19:12:31.058Z,8.57
2018-12-30T19:15:00.018Z,9.90
2018-12-30T19:17:28.333Z,7.97
2018-12-30T19:19:56.261Z,5.40
2018-12-30T19:22:24.364Z,7.57
2018-12-30T19:24:52.261Z,9.93
2018-12-30T19:27:20.297Z,8.27
2018-12-30T19:29:48.290Z,12.60
2018-12-30T19:32:16.414Z,9.77
2018-12-30T19:34:44.349Z,9.60
2018-12-30T19:37:12.350Z,8.77
2018-12-30T19:39:40.420Z,10.23
2018-12-30T19:42:08.387Z,8.30
2018-12-30T19:44:36.358Z,8.00
2018-12-30T19:47:04.370Z,7.87
2018-12-30T19:49:32.705Z,12.07
2018-12-30T19:52:01.023Z,7.83
2018-12-30T19:54:29.021Z,7.33
2018-12-30T19:56:57.096Z,6.03
2018-12-30T19:59:25.544Z,7.47
2018-12-30T20:01:53.777Z,6.00
2018-12-30T20:04:21.807Z,6.53
2018-12-30T20:06:49.839Z,4.63
2018-12-30T20:09:17.761Z,5.77
2018-12-30T20:11:46.079Z,8.93
2018-12-30T20:14:13.981Z,5.37
2018-12-30T20:16:42.098Z,3.40
2018-12-30T20:19:10.303Z,2.67
2018-12-30T20:21:38.296Z,3.97
2018-12-30T20:24:06.271Z,2.63
2018-12-30T20:26:34.479Z,1.90
2018-12-30T20:29:02.525Z,2.77
2018-12-30T20:31:31.516Z,2.20
2018-12-30T20:33:59.553Z,1.30
2018-12-30T20:36:27.613Z,3.27
2018-12-30T20:38:55.646Z,1.97
2018-12-30T20:41:23.725Z,1.70
2018-12-30T20:43:51.805Z,1.40
2018-12-30T20:46:19.824Z,2.47
2018-12-30T20:48:47.929Z,2.27
2018-12-30T20:51:16.012Z,4.10
2018-12-30T20:53:44.071Z,4.27
2018-12-30T20:56:57.295Z,2.13
2018-12-30T20:59:25.105Z,2.80
2018-12-30T21:04:33.869Z,1.70
2018-12-30T21:07:01.235Z,1.27
2018-12-30T21:09:28.553Z,1.63
2018-12-30T21:11:55.816Z,3.87
2018-12-30T21:14:23.127Z,2.60
2018-12-30T21:16:50.482Z,1.60
2018-12-30T21:19:17.837Z,1.70
2018-12-30T21:21:45.094Z,2.30
2018-12-30T21:24:12.989Z,7.13
2018-12-30T21:26:45.299Z,1.10
2018-12-30T21:29:09.843Z,4.03
2018-12-30T21:31:37.084Z,1.60
2018-12-30T21:34:04.469Z,2.07
2018-12-30T21:36:31.669Z,1.50
2018-12-30T21:38:58.890Z,2.13
2018-12-30T21:41:26.145Z,1.90
2018-12-30T21:43:53.388Z,1.87
2018-12-30T21:46:20.653Z,3.30
2018-12-30T21:48:47.910Z,2.97
2018-12-30T21:51:15.409Z,1.63
2018-12-30T21:53:42.685Z,1.77
2018-12-30T21:56:09.931Z,1.90
2018-12-30T21:58:37.260Z,2.20
2018-12-30T22:01:04.563Z,2.50
2018-12-30T22:04:53.725Z,3.10
2018-12-30T22:07:21.797Z,2.60
2018-12-30T22:09:49.861Z,2.47
2018-12-30T22:12:17.786Z,3.63
2018-12-30T22:14:45.849Z,2.73
2018-12-30T22:17:15.062Z,3.97
2018-12-30T22:19:43.186Z,4.03
2018-12-30T22:22:11.196Z,3.13
2018-12-30T22:24:39.286Z,4.63
2018-12-30T22:27:07.662Z,5.23
2018-12-30T22:29:35.954Z,4.07
2018-12-30T22:32:04.269Z,4.47
2018-12-30T22:34:32.295Z,5.47
2018-12-30T22:37:00.247Z,2.53
2018-12-30T22:39:28.277Z,1.90
2018-12-30T22:41:56.191Z,2.67
2018-12-30T22:44:24.348Z,3.47
2018-12-30T22:46:52.353Z,4.50
2018-12-30T22:49:20.397Z,5.03
2018-12-30T22:51:48.569Z,3.77
2018-12-30T22:54:16.616Z,4.27
2018-12-30T22:56:44.489Z,3.30
2018-12-30T22:59:12.541Z,3.50
2018-12-30T23:01:42.569Z,2.93
2018-12-30T23:04:10.673Z,5.00
2018-12-30T23:06:38.721Z,3.50
2018-12-30T23:09:07.740Z,5.20
2018-12-30T23:11:35.865Z,6.07
2018-12-30T23:14:03.928Z,5.53
2018-12-30T23:16:31.983Z,6.03
2018-12-30T23:19:00.176Z,6.70
2018-12-30T23:21:28.180Z,3.47
2018-12-30T23:23:56.117Z,7.97
2018-12-30T23:26:25.005Z,6.57
2018-12-30T23:28:52.982Z,9.57
2018-12-30T23:31:20.966Z,8.60
2018-12-30T23:33:48.911Z,5.57
2018-12-30T23:36:16.873Z,6.23
2018-12-30T23:38:44.913Z,6.50
2018-12-30T23:41:12.956Z,6.63
2018-12-30T23:43:40.937Z,5.50
2018-12-30T23:46:08.949Z,5.87
2018-12-30T23:48:36.992Z,9.10
2018-12-30T23:51:05.313Z,3.23
2018-12-30T23:53:34.409Z,6.03
2018-12-30T23:56:02.354Z,5.77
2018-12-30T23:58:30.361Z,6.07
